createdAt,value
2023-03-03T00:00:33.217Z,21.2
2023-03-03T00:15:32.272Z,21.2
2023-03-03T00:30:32.406Z,21.2
2023-03-03T00:45:32.563Z,21.2
2023-03-03T01:00:34.000Z,21.1
2023-03-03T01:15:32.196Z,21.1
2023-03-03T01:30:32.657Z,21.1
2023-03-03T01:45:32.772Z,21.1
2023-03-03T02:00:33.011Z,21.0
2023-03-03T02:15:32.177Z,21
2023-03-03T02:30:32.911Z,21
2023-03-03T02:45:32.493Z,21
2023-03-03T03:00:32.354Z,21
2023-03-03T03:15:32.513Z,20.9
2023-03-03T03:30:32.065Z,20.9
2023-03-03T03:45:32.737Z,20.9
2023-03-03T04:00:33.367Z,20.9
2023-03-03T04:15:33.145Z,20.9
2023-03-03T04:30:32.716Z,20.9
2023-03-03T04:45:32.686Z,20.9
2023-03-03T05:00:33.014Z,20.9
2023-03-03T05:15:32.781Z,20.8
2023-03-03T05:30:32.381Z,20.8
2023-03-03T05:45:32.320Z,20.8
2023-03-03T06:00:35.699Z,20.8
2023-03-03T06:15:32.900Z,20.8
2023-03-03T06:30:35.690Z,20.8
2023-03-03T06:45:32.644Z,20.9
2023-03-03T07:00:38.474Z,21.0
2023-03-03T07:15:32.031Z,21.1
2023-03-03T07:30:35.652Z,21.1
2023-03-03T07:45:33.011Z,21.2
2023-03-03T08:00:38.564Z,21.3
2023-03-03T08:15:33.085Z,21.4
2023-03-03T08:30:34.585Z,21.5
2023-03-03T08:45:32.184Z,21.6
2023-03-03T09:00:35.201Z,21.6
2023-03-03T09:15:32.140Z,21.7
2023-03-03T09:30:34.165Z,21.7
2023-03-03T09:45:32.311Z,21.6
2023-03-03T10:00:36.602Z,21.6
2023-03-03T10:15:32.216Z,21.6
2023-03-03T10:30:39.767Z,21.5
2023-03-03T10:45:33.418Z,21.5
2023-03-03T11:00:34.803Z,21.6
2023-03-03T11:15:32.646Z,21.6
2023-03-03T11:30:32.353Z,21.6
2023-03-03T11:45:32.825Z,21.6
2023-03-03T12:00:36.683Z,21.6
2023-03-03T12:15:32.534Z,21.6
2023-03-03T12:30:33.374Z,21.6
2023-03-03T12:45:32.475Z,21.6
2023-03-03T13:00:36.801Z,21.6
2023-03-03T13:15:34.026Z,21.6
2023-03-03T13:30:32.920Z,21.6
2023-03-03T13:45:32.505Z,21.6
2023-03-03T14:00:38.526Z,21.6
2023-03-03T14:15:32.669Z,21.6
2023-03-03T14:30:32.466Z,21.6
2023-03-03T14:45:32.771Z,21.6
2023-03-03T15:00:37.680Z,21.7
2023-03-03T15:15:32.332Z,21.7
2023-03-03T15:30:34.319Z,21.7
2023-03-03T15:45:32.673Z,21.7
2023-03-03T16:00:34.745Z,21.7
2023-03-03T16:15:32.467Z,21.7
2023-03-03T16:30:34.270Z,21.7
2023-03-03T16:45:33.318Z,21.7
2023-03-03T17:00:36.486Z,21.7
2023-03-03T17:15:34.045Z,21.7
2023-03-03T17:30:37.937Z,21.6
2023-03-03T17:45:32.594Z,21.6
2023-03-03T18:00:36.860Z,21.6
2023-03-03T18:15:32.387Z,21.6
2023-03-03T18:30:35.574Z,21.5
2023-03-03T18:45:32.607Z,21.5
2023-03-03T19:00:33.635Z,21.4
2023-03-03T19:15:32.494Z,21.4
2023-03-03T19:30:33.870Z,21.3
2023-03-03T19:45:31.841Z,21.3
2023-03-03T20:00:37.633Z,21.3
2023-03-03T20:15:32.657Z,21.2
2023-03-03T20:30:32.981Z,21.2
2023-03-03T20:45:32.769Z,21.2
2023-03-03T21:00:34.637Z,21.2
2023-03-03T21:15:32.757Z,21.2
2023-03-03T21:30:32.752Z,21.2
2023-03-03T21:45:32.683Z,21.2
2023-03-03T22:00:32.618Z,21.2
2023-03-03T22:15:32.366Z,21.2
2023-03-03T22:30:32.745Z,21.2
2023-03-03T22:45:32.069Z,21.2
2023-03-03T23:00:32.304Z,21.2
2023-03-03T23:15:32.613Z,21.3
2023-03-03T23:30:31.869Z,21.3
2023-03-03T23:45:31.845Z,21.3
